Time;durP1;ratioP1;P1;durP2;ratioP2;P2;SDS_P1;SDS_P2;PMS_P1;PMS_P2;Temp;Humidity;BMP_temperature;BMP_pressure;BME280_temperature;BME280_humidity;BME280_pressure;Samples;Min_cycle;Max_cycle;Signal;HPM_P1;HPM_P2
2023/10/16 00:02:11;;;;;;;;;;;;;;;;;;5109500;28;20350;-55
2023/10/16 00:04:37;;;;;;;;;;;;;;;;;;5109858;28;19913;-52
2023/10/16 00:07:03;;;;;;;;;;;;;;;;;;5105790;28;19934;-53
2023/10/16 00:09:28;;;;;;;;;;;;;;;;;;5111721;28;19926;-50
2023/10/16 00:11:54;;;;;;;;;;;;;;;;;;5100984;28;19913;-50
2023/10/16 00:14:23;;;;;;;;;;;;;;;;;;5111743;28;19932;-51
2023/10/16 00:16:50;;;;;;;;;;;;;;;;;;5116317;28;19912;-51
2023/10/16 00:19:15;;;;;;;;;;;;;;;;;;5131480;28;19912;-51
2023/10/16 00:21:43;;;;;;;;;;;;;;;;;;5114747;28;19987;-55
2023/10/16 00:24:09;;;;;;;;;;;;;;;;;;5113102;28;19934;-54
2023/10/16 00:26:35;;;;;;;;;;;;;;;;;;5112084;28;19912;-51
2023/10/16 00:29:07;;;;;;;;;;;;;;;;;;5096976;28;19916;-53
2023/10/16 00:31:32;;;;;;;;;;;;;;;;;;5095355;28;19923;-51
2023/10/16 00:33:59;;;;;;;;;;;;;;;;;;5129960;28;19988;-52
2023/10/16 00:36:24;;;;;;;;;;;;;;;;;;5116153;28;19924;-51
2023/10/16 00:38:51;;;;;;;;;;;;;;;;;;5115839;28;19912;-51
2023/10/16 00:41:17;;;;;;;;;;;;;;;;;;5127637;28;19916;-49
2023/10/16 00:43:43;;;;;;;;;;;;;;;;;;5091764;28;19912;-55
2023/10/16 00:46:09;;;;;;;;;;;;;;;;;;5086925;28;19913;-54
2023/10/16 00:48:35;;;;;;;;;;;;;;;;;;5114051;28;19962;-52
2023/10/16 00:51:06;;;;;;;;;;;;;;;;;;5085337;28;19912;-54
2023/10/16 00:53:31;;;;;;;;;;;;;;;;;;5100809;28;19941;-53
2023/10/16 00:55:57;;;;;;;;;;;;;;;;;;5097752;28;19919;-52
2023/10/16 00:58:23;;;;;;;;;;;;;;;;;;5083506;28;19912;-52
2023/10/16 01:00:49;;;;;;;;;;;;;;;;;;5095367;28;19982;-54
2023/10/16 01:03:20;;;;;;;;;;;;;;;;;;5120257;28;19916;-52
2023/10/16 01:05:49;;;;;;;;;;;;;;;;;;5118185;28;20290;-52
2023/10/16 01:08:17;;;;;;;;;;;;;;;;;;5095581;28;19920;-54
2023/10/16 01:10:47;;;;;;;;;;;;;;;;;;5095764;28;19924;-55
2023/10/16 01:13:13;;;;;;;;;;;;;;;;;;5084238;28;19934;-54
2023/10/16 01:15:43;;;;;;;;;;;;;;;;;;5091761;28;19979;-56
2023/10/16 01:18:11;;;;;;;;;;;;;;;;;;5095738;28;19912;-55
2023/10/16 01:20:38;;;;;;;;;;;;;;;;;;5117285;28;19912;-54
2023/10/16 01:23:04;;;;;;;;;;;;;;;;;;5078104;28;19917;-53
2023/10/16 01:25:30;;;;;;;;;;;;;;;;;;5096158;28;19995;-54
2023/10/16 01:27:55;;;;;;;;;;;;;;;;;;5095461;28;19913;-55
2023/10/16 01:30:23;;;;;;;;;;;;;;;;;;5095123;28;19917;-54
2023/10/16 01:32:48;;;;;;;;;;;;;;;;;;5077848;28;19916;-54
2023/10/16 01:35:15;;;;;;;;;;;;;;;;;;5078225;28;19943;-52
2023/10/16 01:37:41;;;;;;;;;;;;;;;;;;5123194;28;19913;-54
2023/10/16 01:40:21;;;;;;;;;;;;;;;;;;5095567;28;19924;-52
2023/10/16 01:42:47;;;;;;;;;;;;;;;;;;5095494;28;19912;-52
2023/10/16 01:45:15;;;;;;;;;;;;;;;;;;5080905;28;19918;-56
2023/10/16 01:47:41;;;;;;;;;;;;;;;;;;5114206;28;19937;-52
2023/10/16 01:50:13;;;;;;;;;;;;;;;;;;5082533;28;19919;-55
2023/10/16 01:52:40;;;;;;;;;;;;;;;;;;5089039;28;19944;-55
2023/10/16 01:55:09;;;;;;;;;;;;;;;;;;5111321;28;19942;-55
2023/10/16 01:57:34;;;;;;;;;;;;;;;;;;5102320;28;19913;-55
2023/10/16 02:00:00;;;;;;;;;;;;;;;;;;5096023;28;19919;-56
2023/10/16 02:02:25;;;;;;;;;;;;;;;;;;5083321;28;19976;-58
2023/10/16 02:04:51;;;;;;;;;;;;;;;;;;5117297;28;19912;-55
2023/10/16 02:07:16;;;;;;;;;;;;;;;;;;5118863;28;19919;-52
2023/10/16 02:09:42;;;;;;;;;;;;;;;;;;5113899;28;19943;-55
2023/10/16 02:12:14;;;;;;;;;;;;;;;;;;5099021;28;19928;-51
2023/10/16 02:14:40;;;;;;;;;;;;;;;;;;5091736;28;20299;-56
2023/10/16 02:17:14;;;;;;;;;;;;;;;;;;5092666;28;19912;-56
2023/10/16 02:19:39;;;;;;;;;;;;;;;;;;5086139;28;19916;-55
2023/10/16 02:22:06;;;;;;;;;;;;;;;;;;5112038;28;19947;-57
2023/10/16 02:24:34;;;;;;;;;;;;;;;;;;5098889;28;19947;-52
2023/10/16 02:27:02;;;;;;;;;;;;;;;;;;5123667;28;19912;-52
2023/10/16 02:29:31;;;;;;;;;;;;;;;;;;5114715;28;19916;-53
2023/10/16 02:31:57;;;;;;;;;;;;;;;;;;5098410;28;19920;-52
2023/10/16 02:34:23;;;;;;;;;;;;;;;;;;5114575;28;19913;-53
2023/10/16 02:36:50;;;;;;;;;;;;;;;;;;5111581;28;19941;-55
2023/10/16 02:39:35;;;;;;;;;;;;;;;;;;5098559;28;19908;-52
2023/10/16 02:42:00;;;;;;;;;;;;;;;;;;5105168;28;19943;-50
2023/10/16 02:44:26;;;;;;;;;;;;;;;;;;5098620;28;19912;-53
2023/10/16 02:46:51;;;;;;;;;;;;;;;;;;5100281;28;19938;-55
2023/10/16 02:49:16;;;;;;;;;;;;;;;;;;5083169;28;19917;-52
2023/10/16 02:51:42;;;;;;;;;;;;;;;;;;5104972;28;19927;-53
2023/10/16 02:54:08;;;;;;;;;;;;;;;;;;5100795;28;19913;-51
2023/10/16 02:56:33;;;;;;;;;;;;;;;;;;5106563;28;19920;-51
2023/10/16 02:59:07;;;;;;;;;;;;;;;;;;5107459;28;19919;-56
2023/10/16 03:01:32;;;;;;;;;;;;;;;;;;5098374;28;19934;-55
2023/10/16 03:03:58;;;;;;;;;;;;;;;;;;5086713;28;19975;-54
2023/10/16 03:06:26;;;;;;;;;;;;;;;;;;5083218;28;19948;-56
2023/10/16 03:08:51;;;;;;;;;;;;;;;;;;5088387;28;19912;-55
2023/10/16 03:11:17;;;;;;;;;;;;;;;;;;5079745;28;19916;-54
2023/10/16 03:13:51;;;;;;;;;;;;;;;;;;5098225;28;19992;-57
2023/10/16 03:16:18;;;;;;;;;;;;;;;;;;5098119;28;19916;-54
2023/10/16 03:18:44;;;;;;;;;;;;;;;;;;5103926;28;19920;-55
2023/10/16 03:23:43;;;;;;;;;;;;;;;;;;5099316;28;19913;-53
2023/10/16 03:26:09;;;;;;;;;;;;;;;;;;5085390;28;19916;-55
2023/10/16 03:28:35;;;;;;;;;;;;;;;;;;5117985;28;20007;-52
2023/10/16 03:31:02;;;;;;;;;;;;;;;;;;5113928;28;19923;-56
2023/10/16 03:33:27;;;;;;;;;;;;;;;;;;5114612;28;19913;-54
2023/10/16 03:35:53;;;;;;;;;;;;;;;;;;5110235;28;19920;-53
2023/10/16 03:38:26;;;;;;;;;;;;;;;;;;5098167;28;19912;-54
2023/10/16 03:40:52;;;;;;;;;;;;;;;;;;5085572;28;19938;-54
2023/10/16 03:43:18;;;;;;;;;;;;;;;;;;5098225;28;20063;-54
2023/10/16 03:45:44;;;;;;;;;;;;;;;;;;5106875;28;19913;-57
2023/10/16 03:48:10;;;;;;;;;;;;;;;;;;5099157;28;19919;-56
2023/10/16 03:50:38;;;;;;;;;;;;;;;;;;5105725;28;19923;-53
2023/10/16 03:53:03;;;;;;;;;;;;;;;;;;5099156;28;19909;-56
2023/10/16 03:55:31;;;;;;;;;;;;;;;;;;5103141;28;19930;-53
2023/10/16 03:57:57;;;;;;;;;;;;;;;;;;5104706;28;19918;-54
2023/10/16 04:00:26;;;;;;;;;;;;;;;;;;5096738;28;19913;-54
2023/10/16 04:02:52;;;;;;;;;;;;;;;;;;5096613;28;19922;-54
2023/10/16 04:05:32;;;;;;;;;;;;;;;;;;5096782;28;19975;-56
2023/10/16 04:07:58;;;;;;;;;;;;;;;;;;5100629;28;19912;-53
2023/10/16 04:10:29;;;;;;;;;;;;;;;;;;5096870;28;19927;-53
2023/10/16 04:12:55;;;;;;;;;;;;;;;;;;5112779;28;20071;-55
2023/10/16 04:15:50;;;;;;;;;;;;;;;;;;5097124;28;19929;-51
2023/10/16 04:21:50;;;;;;;;;;;;;;;;;;5068655;28;19912;-53
2023/10/16 04:23:52;;;;;;;;;;;;;;;;;;5087502;28;19920;-55
2023/10/16 04:34:25;;;;;;;;;;;;;;;;;;5096724;28;19938;-57
2023/10/16 04:36:54;;;;;;;;;;;;;;;;;;5100809;28;19966;-56
2023/10/16 04:47:47;;;;;;;;;;;;;;;;;;5133529;27;19934;-55
2023/10/16 04:50:14;;;;;;;;;;;;;;;;;;5133222;28;19919;-53
2023/10/16 05:16:48;;;;;;;;;;;;;;;;;;5129199;28;19916;-54
2023/10/16 06:16:34;;;;;;;;;;;;;;;;;;5116016;28;19971;-59
2023/10/16 06:19:07;;;;;;;;;;;;;;;;;;5121210;28;19907;-59
2023/10/16 06:21:32;;;;;;;;;;;;;;;;;;5117538;28;19922;-54
2023/10/16 06:23:58;;;;;;;;;;;;;;;;;;5116653;28;19936;-58
2023/10/16 06:26:27;;;;;;;;;;;;;;;;;;5117558;28;19938;-59
2023/10/16 06:28:52;;;;;;;;;;;;;;;;;;5129846;28;19912;-61
2023/10/16 06:31:24;;;;;;;;;;;;;;;;;;5116525;28;19955;-59
2023/10/16 06:33:53;;;;;;;;;;;;;;;;;;5117572;28;19918;-60
2023/10/16 06:36:18;;;;;;;;;;;;;;;;;;5112762;28;19916;-60
2023/10/16 06:38:45;;;;;;;;;;;;;;;;;;5117609;28;19973;-55
2023/10/16 06:41:15;;;;;;;;;;;;;;;;;;5125744;28;19979;-58
2023/10/16 06:43:40;;;;;;;;;;;;;;;;;;5117488;28;19912;-57
2023/10/16 06:46:09;;;;;;;;;;;;;;;;;;5112100;28;19919;-56
2023/10/16 06:48:37;;;;;;;;;;;;;;;;;;5117262;28;19918;-59
2023/10/16 06:51:14;;;;;;;;;;;;;;;;;;5115721;28;19980;-59
2023/10/16 06:53:40;;;;;;;;;;;;;;;;;;5105546;28;19896;-55
2023/10/16 06:56:05;;;;;;;;;;;;;;;;;;5117044;28;19966;-58
2023/10/16 06:58:34;;;;;;;;;;;;;;;;;;5116561;28;19919;-58
2023/10/16 07:01:01;;;;;;;;;;;;;;;;;;5112662;28;19939;-58
2023/10/16 07:03:28;;;;;;;;;;;;;;;;;;5102728;28;19912;-60
2023/10/16 07:05:53;;;;;;;;;;;;;;;;;;5109563;28;19920;-62
2023/10/16 07:08:18;;;;;;;;;;;;;;;;;;5104599;28;19912;-59
2023/10/16 07:10:49;;;;;;;;;;;;;;;;;;5112331;28;19912;-58
2023/10/16 07:13:14;;;;;;;;;;;;;;;;;;5106126;28;19912;-59
2023/10/16 07:15:40;;;;;;;;;;;;;;;;;;5116239;28;19912;-58
2023/10/16 07:18:06;;;;;;;;;;;;;;;;;;5107533;28;19935;-61
2023/10/16 07:20:31;;;;;;;;;;;;;;;;;;5115630;28;19927;-62
2023/10/16 07:22:59;;;;;;;;;;;;;;;;;;5105528;28;19934;-61
2023/10/16 07:25:25;;;;;;;;;;;;;;;;;;5118951;28;19917;-59
2023/10/16 07:27:57;;;;;;;;;;;;;;;;;;5122531;28;19919;-61
2023/10/16 07:30:23;;;;;;;;;;;;;;;;;;5115988;28;19917;-61
2023/10/16 07:32:49;;;;;;;;;;;;;;;;;;5110486;28;19938;-61
2023/10/16 07:35:17;;;;;;;;;;;;;;;;;;5118026;28;19971;-57
2023/10/16 07:37:42;;;;;;;;;;;;;;;;;;5112361;28;19919;-61
2023/10/16 07:40:08;;;;;;;;;;;;;;;;;;5120430;28;19937;-62
2023/10/16 07:42:35;;;;;;;;;;;;;;;;;;5099287;28;19921;-62
2023/10/16 07:45:00;;;;;;;;;;;;;;;;;;5138478;27;19912;-61
2023/10/16 07:47:26;;;;;;;;;;;;;;;;;;5105454;28;19947;-60
2023/10/16 07:49:51;;;;;;;;;;;;;;;;;;5117524;28;19919;-61
2023/10/16 07:52:18;;;;;;;;;;;;;;;;;;5106114;28;19938;-61
2023/10/16 07:54:43;;;;;;;;;;;;;;;;;;5113589;28;19913;-61
2023/10/16 07:57:09;;;;;;;;;;;;;;;;;;5104634;28;19954;-62
2023/10/16 07:59:36;;;;;;;;;;;;;;;;;;5115677;28;19999;-62
2023/10/16 08:02:04;;;;;;;;;;;;;;;;;;5107170;28;19916;-62
2023/10/16 08:04:35;;;;;;;;;;;;;;;;;;5111842;28;19922;-61
2023/10/16 08:07:04;;;;;;;;;;;;;;;;;;5111804;28;19912;-60
2023/10/16 08:09:48;;;;;;;;;;;;;;;;;;5119067;28;19911;-60
2023/10/16 08:12:19;;;;;;;;;;;;;;;;;;5105304;28;19975;-61
2023/10/16 08:14:45;;;;;;;;;;;;;;;;;;5112312;28;19934;-57
2023/10/16 08:17:23;;;;;;;;;;;;;;;;;;5115390;28;19972;-61
2023/10/16 08:19:49;;;;;;;;;;;;;;;;;;5118390;28;19912;-59
2023/10/16 08:22:15;;;;;;;;;;;;;;;;;;5112754;28;19930;-59
2023/10/16 08:24:43;;;;;;;;;;;;;;;;;;5115762;28;19912;-62
2023/10/16 08:27:19;;;;;;;;;;;;;;;;;;5115039;28;19912;-60
2023/10/16 08:29:54;;;;;;;;;;;;;;;;;;5116805;28;19916;-58
2023/10/16 08:35:09;;;;;;;;;;;;;;;;;;5125180;28;19916;-62
2023/10/16 08:37:35;;;;;;;;;;;;;;;;;;5113516;28;19912;-59
2023/10/16 08:40:01;;;;;;;;;;;;;;;;;;5115816;28;19920;-59
2023/10/16 08:42:26;;;;;;;;;;;;;;;;;;5115258;28;19918;-60
2023/10/16 08:44:51;;;;;;;;;;;;;;;;;;5117795;28;19912;-60
2023/10/16 08:47:17;;;;;;;;;;;;;;;;;;5115024;28;19912;-60
2023/10/16 08:49:51;;;;;;;;;;;;;;;;;;5114528;28;19912;-62
2023/10/16 08:52:20;;;;;;;;;;;;;;;;;;5125273;28;19977;-60
2023/10/16 08:57:16;;;;;;;;;;;;;;;;;;5114119;28;19912;-62
2023/10/16 08:59:42;;;;;;;;;;;;;;;;;;5115014;28;19918;-61
2023/10/16 09:02:07;;;;;;;;;;;;;;;;;;5116405;28;19956;-60
2023/10/16 09:04:33;;;;;;;;;;;;;;;;;;5111986;28;19991;-56
2023/10/16 09:06:59;;;;;;;;;;;;;;;;;;5125611;28;19948;-59
2023/10/16 09:09:25;;;;;;;;;;;;;;;;;;5098651;28;19919;-58
2023/10/16 09:11:50;;;;;;;;;;;;;;;;;;5120140;28;19990;-60
2023/10/16 09:14:20;;;;;;;;;;;;;;;;;;5112153;28;19912;-57
2023/10/16 09:16:46;;;;;;;;;;;;;;;;;;5105996;28;19912;-61
2023/10/16 09:19:11;;;;;;;;;;;;;;;;;;5112608;28;19920;-61
2023/10/16 09:21:39;;;;;;;;;;;;;;;;;;5104381;28;19927;-61
2023/10/16 09:24:05;;;;;;;;;;;;;;;;;;5095793;28;19916;-62
2023/10/16 09:26:32;;;;;;;;;;;;;;;;;;5146523;27;19919;-60
2023/10/16 09:29:04;;;;;;;;;;;;;;;;;;5126206;28;19934;-62
2023/10/16 09:31:30;;;;;;;;;;;;;;;;;;5118169;28;20018;-62
2023/10/16 09:33:55;;;;;;;;;;;;;;;;;;5117827;28;19919;-62
2023/10/16 09:36:21;;;;;;;;;;;;;;;;;;5124623;28;19916;-61
2023/10/16 09:38:51;;;;;;;;;;;;;;;;;;5114814;28;19912;-62
2023/10/16 09:44:06;;;;;;;;;;;;;;;;;;5113610;28;19912;-61
2023/10/16 09:49:13;;;;;;;;;;;;;;;;;;5106691;28;19919;-61
2023/10/16 09:51:39;;;;;;;;;;;;;;;;;;5118285;28;19912;-59
2023/10/16 09:54:04;;;;;;;;;;;;;;;;;;5118224;28;19912;-61
2023/10/16 09:56:29;;;;;;;;;;;;;;;;;;5126868;28;19912;-63
2023/10/16 09:58:56;;;;;;;;;;;;;;;;;;5120837;28;19923;-59
2023/10/16 10:01:29;;;;;;;;;;;;;;;;;;5119838;28;19924;-62
2023/10/16 10:03:55;;;;;;;;;;;;;;;;;;5117968;28;19916;-60
2023/10/16 10:06:20;;;;;;;;;;;;;;;;;;5113203;28;19967;-59
2023/10/16 10:11:37;;;;;;;;;;;;;;;;;;5125419;28;19912;-61
2023/10/16 10:14:09;;;;;;;;;;;;;;;;;;5119052;28;19912;-62
2023/10/16 10:16:35;;;;;;;;;;;;;;;;;;5117460;28;19926;-61
2023/10/16 10:19:04;;;;;;;;;;;;;;;;;;5117243;28;19943;-59
2023/10/16 10:21:30;;;;;;;;;;;;;;;;;;5117765;28;19927;-61
2023/10/16 10:24:00;;;;;;;;;;;;;;;;;;5117178;28;19912;-61
2023/10/16 10:26:25;;;;;;;;;;;;;;;;;;5118684;28;19912;-58
2023/10/16 10:28:51;;;;;;;;;;;;;;;;;;5117270;28;19947;-61
2023/10/16 10:31:16;;;;;;;;;;;;;;;;;;5118109;28;19912;-62
2023/10/16 10:33:42;;;;;;;;;;;;;;;;;;5117042;28;19983;-63
2023/10/16 10:36:07;;;;;;;;;;;;;;;;;;5110634;28;19913;-60
2023/10/16 10:38:36;;;;;;;;;;;;;;;;;;5116235;28;19947;-58
2023/10/16 10:41:01;;;;;;;;;;;;;;;;;;5117501;28;19920;-62
2023/10/16 10:43:26;;;;;;;;;;;;;;;;;;5107582;28;19923;-60
2023/10/16 10:45:52;;;;;;;;;;;;;;;;;;5106798;28;19912;-61
2023/10/16 10:48:17;;;;;;;;;;;;;;;;;;5116565;28;19944;-61
2023/10/16 10:50:45;;;;;;;;;;;;;;;;;;5120157;28;19912;-62
2023/10/16 10:53:13;;;;;;;;;;;;;;;;;;5121998;28;19919;-62
2023/10/16 10:55:39;;;;;;;;;;;;;;;;;;5112992;28;19912;-61
2023/10/16 10:58:11;;;;;;;;;;;;;;;;;;5126063;28;19971;-62
2023/10/16 11:00:49;;;;;;;;;;;;;;;;;;5112509;28;19924;-62
2023/10/16 11:03:32;;;;;;;;;;;;;;;;;;5114270;28;19916;-62
2023/10/16 11:05:58;;;;;;;;;;;;;;;;;;5122832;28;19912;-62
2023/10/16 11:08:26;;;;;;;;;;;;;;;;;;5111671;28;19916;-61
2023/10/16 11:10:51;;;;;;;;;;;;;;;;;;5110280;28;19917;-63
2023/10/16 11:13:18;;;;;;;;;;;;;;;;;;5113273;28;19918;-62
2023/10/16 11:15:43;;;;;;;;;;;;;;;;;;5115965;28;19912;-62
2023/10/16 11:18:08;;;;;;;;;;;;;;;;;;5116428;28;19912;-62
2023/10/16 11:20:37;;;;;;;;;;;;;;;;;;5116206;28;19927;-63
2023/10/16 11:23:12;;;;;;;;;;;;;;;;;;5116151;28;19912;-63
2023/10/16 11:25:38;;;;;;;;;;;;;;;;;;5117614;28;19912;-63
2023/10/16 11:28:07;;;;;;;;;;;;;;;;;;5117328;28;19916;-63
2023/10/16 11:30:33;;;;;;;;;;;;;;;;;;5116323;28;19916;-63
2023/10/16 11:32:59;;;;;;;;;;;;;;;;;;5116748;28;19913;-62
2023/10/16 11:35:26;;;;;;;;;;;;;;;;;;5110176;28;20006;-62
2023/10/16 11:37:55;;;;;;;;;;;;;;;;;;5104997;28;19948;-62
2023/10/16 11:40:31;;;;;;;;;;;;;;;;;;5110401;28;19920;-63
2023/10/16 11:42:56;;;;;;;;;;;;;;;;;;5109800;28;19912;-63
2023/10/16 11:45:23;;;;;;;;;;;;;;;;;;5109075;28;19938;-62
2023/10/16 11:48:18;;;;;;;;;;;;;;;;;;5110651;28;19912;-62
2023/10/16 11:50:38;;;;;;;;;;;;;;;;;;5109755;28;19908;-62
2023/10/16 11:53:06;;;;;;;;;;;;;;;;;;5105431;28;19919;-62
2023/10/16 11:55:31;;;;;;;;;;;;;;;;;;5112329;28;19938;-64
2023/10/16 11:57:57;;;;;;;;;;;;;;;;;;5109291;28;19916;-64
2023/10/16 12:00:28;;;;;;;;;;;;;;;;;;5114833;28;19916;-64
2023/10/16 12:02:53;;;;;;;;;;;;;;;;;;5118198;28;19992;-63
2023/10/16 12:05:19;;;;;;;;;;;;;;;;;;5115331;28;19912;-63
2023/10/16 12:07:44;;;;;;;;;;;;;;;;;;5114324;28;19916;-64
2023/10/16 12:10:15;;;;;;;;;;;;;;;;;;5114899;28;19912;-63
2023/10/16 12:12:41;;;;;;;;;;;;;;;;;;5115019;28;19916;-60
2023/10/16 12:15:09;;;;;;;;;;;;;;;;;;5115370;28;19916;-62
2023/10/16 12:17:35;;;;;;;;;;;;;;;;;;5113496;28;19920;-62
2023/10/16 12:20:08;;;;;;;;;;;;;;;;;;5112201;28;19916;-61
2023/10/16 12:22:33;;;;;;;;;;;;;;;;;;5124253;28;19912;-62
2023/10/16 12:24:59;;;;;;;;;;;;;;;;;;5115236;28;19919;-61
2023/10/16 12:27:25;;;;;;;;;;;;;;;;;;5114983;28;19912;-61
2023/10/16 12:29:50;;;;;;;;;;;;;;;;;;5115214;28;19962;-62
2023/10/16 12:32:16;;;;;;;;;;;;;;;;;;5120625;28;19912;-62
2023/10/16 12:34:42;;;;;;;;;;;;;;;;;;5114544;28;19912;-62
2023/10/16 12:37:07;;;;;;;;;;;;;;;;;;5121670;28;20005;-62
2023/10/16 12:39:35;;;;;;;;;;;;;;;;;;5115039;28;19919;-62
2023/10/16 12:42:05;;;;;;;;;;;;;;;;;;5114922;28;19965;-62
2023/10/16 12:44:30;;;;;;;;;;;;;;;;;;5114694;28;19915;-62
2023/10/16 12:46:56;;;;;;;;;;;;;;;;;;5118714;28;19912;-63
2023/10/16 12:49:21;;;;;;;;;;;;;;;;;;5114884;28;19966;-62
2023/10/16 12:51:48;;;;;;;;;;;;;;;;;;5119171;28;19934;-62
2023/10/16 12:54:15;;;;;;;;;;;;;;;;;;5115873;28;19912;-62
2023/10/16 12:56:43;;;;;;;;;;;;;;;;;;5117026;28;19969;-60
2023/10/16 12:59:08;;;;;;;;;;;;;;;;;;5111981;28;19976;-61
2023/10/16 13:01:36;;;;;;;;;;;;;;;;;;5114856;28;19927;-62
2023/10/16 13:04:03;;;;;;;;;;;;;;;;;;5115819;28;19921;-62
2023/10/16 13:06:28;;;;;;;;;;;;;;;;;;5153493;27;19916;-61
2023/10/16 13:08:54;;;;;;;;;;;;;;;;;;5122511;28;19962;-62
2023/10/16 13:11:19;;;;;;;;;;;;;;;;;;5118668;28;19912;-61
2023/10/16 13:13:45;;;;;;;;;;;;;;;;;;5121227;28;19974;-60
2023/10/16 13:16:11;;;;;;;;;;;;;;;;;;5118816;28;19912;-63
2023/10/16 13:18:37;;;;;;;;;;;;;;;;;;5114065;28;19971;-63
2023/10/16 13:21:12;;;;;;;;;;;;;;;;;;5118409;28;19940;-62
2023/10/16 13:23:38;;;;;;;;;;;;;;;;;;5122704;28;19912;-63
2023/10/16 13:26:03;;;;;;;;;;;;;;;;;;5118059;28;19932;-62
2023/10/16 13:28:30;;;;;;;;;;;;;;;;;;5124023;28;19924;-61
2023/10/16 13:30:55;;;;;;;;;;;;;;;;;;5125444;28;19916;-61
2023/10/16 13:33:20;;;;;;;;;;;;;;;;;;5119050;28;19958;-62
2023/10/16 13:35:45;;;;;;;;;;;;;;;;;;5115909;28;19912;-62
2023/10/16 13:38:11;;;;;;;;;;;;;;;;;;5112201;28;19919;-58
2023/10/16 13:40:36;;;;;;;;;;;;;;;;;;5110698;28;19983;-58
2023/10/16 13:43:11;;;;;;;;;;;;;;;;;;5110429;28;19916;-58
2023/10/16 13:45:37;;;;;;;;;;;;;;;;;;5112419;28;19987;-58
2023/10/16 13:48:04;;;;;;;;;;;;;;;;;;5124278;28;19920;-56
2023/10/16 13:50:30;;;;;;;;;;;;;;;;;;5119551;28;19934;-55
2023/10/16 13:52:55;;;;;;;;;;;;;;;;;;5122322;28;19916;-57
2023/10/16 13:55:21;;;;;;;;;;;;;;;;;;5107057;28;19951;-57
2023/10/16 13:57:47;;;;;;;;;;;;;;;;;;5116757;28;19916;-58
2023/10/16 14:00:28;;;;;;;;;;;;;;;;;;5117311;28;19923;-58
2023/10/16 14:02:54;;;;;;;;;;;;;;;;;;5117759;28;19911;-56
2023/10/16 14:05:20;;;;;;;;;;;;;;;;;;5108191;28;19923;-56
2023/10/16 14:07:45;;;;;;;;;;;;;;;;;;5118842;28;19912;-56
2023/10/16 14:10:13;;;;;;;;;;;;;;;;;;5112443;28;19912;-53
2023/10/16 14:12:38;;;;;;;;;;;;;;;;;;5117825;28;19912;-56
2023/10/16 14:15:04;;;;;;;;;;;;;;;;;;5110017;28;19919;-56
2023/10/16 14:17:37;;;;;;;;;;;;;;;;;;5106931;28;19912;-55
2023/10/16 14:20:11;;;;;;;;;;;;;;;;;;5115529;28;19912;-57
2023/10/16 14:22:42;;;;;;;;;;;;;;;;;;5110709;28;19912;-57
2023/10/16 14:25:11;;;;;;;;;;;;;;;;;;5110767;28;19912;-56
2023/10/16 14:27:39;;;;;;;;;;;;;;;;;;5117387;28;19930;-57
2023/10/16 14:30:05;;;;;;;;;;;;;;;;;;5110482;28;19979;-58
2023/10/16 14:32:30;;;;;;;;;;;;;;;;;;5123205;28;19915;-56
2023/10/16 14:34:56;;;;;;;;;;;;;;;;;;5117469;28;19951;-56
2023/10/16 14:37:21;;;;;;;;;;;;;;;;;;5116418;28;19968;-56
2023/10/16 14:39:50;;;;;;;;;;;;;;;;;;5109984;28;19927;-56
2023/10/16 14:42:17;;;;;;;;;;;;;;;;;;5116264;28;19920;-55
2023/10/16 14:44:45;;;;;;;;;;;;;;;;;;5113110;28;19912;-53
2023/10/16 14:47:10;;;;;;;;;;;;;;;;;;5109814;28;19946;-57
2023/10/16 14:49:35;;;;;;;;;;;;;;;;;;5116611;28;19912;-54
2023/10/16 14:52:02;;;;;;;;;;;;;;;;;;5109380;28;20299;-53
2023/10/16 14:54:28;;;;;;;;;;;;;;;;;;5109982;28;19912;-55
2023/10/16 14:56:54;;;;;;;;;;;;;;;;;;5116404;28;19912;-57
2023/10/16 14:59:19;;;;;;;;;;;;;;;;;;5116082;28;19938;-56
2023/10/16 15:01:45;;;;;;;;;;;;;;;;;;5116191;28;19955;-57
2023/10/16 15:04:11;;;;;;;;;;;;;;;;;;5116168;28;19912;-58
2023/10/16 15:06:37;;;;;;;;;;;;;;;;;;5116944;28;19912;-57
2023/10/16 15:09:09;;;;;;;;;;;;;;;;;;5122977;28;19922;-55
2023/10/16 15:11:35;;;;;;;;;;;;;;;;;;5126039;28;19955;-54
2023/10/16 15:14:01;;;;;;;;;;;;;;;;;;5115704;28;19916;-55
2023/10/16 15:16:27;;;;;;;;;;;;;;;;;;5109971;28;19912;-55
2023/10/16 15:18:52;;;;;;;;;;;;;;;;;;5106678;28;19913;-57
2023/10/16 15:21:18;;;;;;;;;;;;;;;;;;5103603;28;19927;-56
2023/10/16 15:23:45;;;;;;;;;;;;;;;;;;5115333;28;19982;-56
2023/10/16 15:26:11;;;;;;;;;;;;;;;;;;5103921;28;19970;-55
2023/10/16 15:28:36;;;;;;;;;;;;;;;;;;5115486;28;19949;-54
2023/10/16 15:31:02;;;;;;;;;;;;;;;;;;5111818;28;19946;-55
2023/10/16 15:33:27;;;;;;;;;;;;;;;;;;5114813;28;19933;-56
2023/10/16 15:35:55;;;;;;;;;;;;;;;;;;5115362;28;19927;-55
2023/10/16 15:38:23;;;;;;;;;;;;;;;;;;5113026;28;20119;-56
2023/10/16 15:40:49;;;;;;;;;;;;;;;;;;5115628;28;19950;-52
2023/10/16 15:43:16;;;;;;;;;;;;;;;;;;5109962;28;19987;-55
2023/10/16 15:45:42;;;;;;;;;;;;;;;;;;5106138;28;20375;-55
2023/10/16 15:48:07;;;;;;;;;;;;;;;;;;5113557;28;19955;-52
2023/10/16 15:50:35;;;;;;;;;;;;;;;;;;5115850;28;19927;-56
2023/10/16 15:53:01;;;;;;;;;;;;;;;;;;5114452;28;19912;-55
2023/10/16 15:55:26;;;;;;;;;;;;;;;;;;5119903;28;19912;-56
2023/10/16 15:57:52;;;;;;;;;;;;;;;;;;5114995;28;19912;-55
2023/10/16 16:00:17;;;;;;;;;;;;;;;;;;5127270;28;19912;-52
2023/10/16 16:02:42;;;;;;;;;;;;;;;;;;5114898;28;19935;-55
2023/10/16 16:05:09;;;;;;;;;;;;;;;;;;5120800;28;19931;-53
2023/10/16 16:07:35;;;;;;;;;;;;;;;;;;5114197;28;19912;-57
2023/10/16 16:10:00;;;;;;;;;;;;;;;;;;5112438;28;19916;-54
2023/10/16 16:12:26;;;;;;;;;;;;;;;;;;5120843;28;19918;-56
2023/10/16 16:14:51;;;;;;;;;;;;;;;;;;5125133;28;19951;-55
2023/10/16 16:17:18;;;;;;;;;;;;;;;;;;5116582;28;19935;-54
2023/10/16 16:19:43;;;;;;;;;;;;;;;;;;5116215;28;19916;-55
2023/10/16 16:22:12;;;;;;;;;;;;;;;;;;5118000;28;19965;-56
2023/10/16 16:24:37;;;;;;;;;;;;;;;;;;5114959;28;19912;-53
2023/10/16 16:27:03;;;;;;;;;;;;;;;;;;5115048;28;19912;-55
2023/10/16 16:29:28;;;;;;;;;;;;;;;;;;5114312;28;19938;-54
2023/10/16 16:31:54;;;;;;;;;;;;;;;;;;5104458;28;19913;-55
2023/10/16 16:34:22;;;;;;;;;;;;;;;;;;5118109;28;19915;-55
2023/10/16 16:36:47;;;;;;;;;;;;;;;;;;5116058;28;19930;-57
2023/10/16 16:39:13;;;;;;;;;;;;;;;;;;5114851;28;19920;-56
2023/10/16 16:41:38;;;;;;;;;;;;;;;;;;5108096;28;19916;-55
2023/10/16 16:44:04;;;;;;;;;;;;;;;;;;5107147;28;19934;-55
2023/10/16 16:46:29;;;;;;;;;;;;;;;;;;5116487;28;19916;-53
2023/10/16 16:48:55;;;;;;;;;;;;;;;;;;5106746;28;19916;-56
2023/10/16 16:51:22;;;;;;;;;;;;;;;;;;5114928;28;19940;-55
2023/10/16 16:53:49;;;;;;;;;;;;;;;;;;5113264;28;19930;-54
2023/10/16 16:56:15;;;;;;;;;;;;;;;;;;5117432;28;19912;-53
2023/10/16 16:58:40;;;;;;;;;;;;;;;;;;5114847;28;19912;-54
2023/10/16 17:01:05;;;;;;;;;;;;;;;;;;5114015;28;19923;-55
2023/10/16 17:03:31;;;;;;;;;;;;;;;;;;5122943;28;19912;-55
2023/10/16 17:05:57;;;;;;;;;;;;;;;;;;5114909;28;19976;-57
2023/10/16 17:08:24;;;;;;;;;;;;;;;;;;5114765;28;19912;-54
2023/10/16 17:10:49;;;;;;;;;;;;;;;;;;5106751;28;19938;-57
2023/10/16 17:13:15;;;;;;;;;;;;;;;;;;5114553;28;19912;-56
2023/10/16 17:15:40;;;;;;;;;;;;;;;;;;5113783;28;19997;-54
2023/10/16 17:18:05;;;;;;;;;;;;;;;;;;5114126;28;19912;-51
2023/10/16 17:20:31;;;;;;;;;;;;;;;;;;5114288;28;19949;-54
2023/10/16 17:22:56;;;;;;;;;;;;;;;;;;5114525;28;19912;-53
2023/10/16 17:25:21;;;;;;;;;;;;;;;;;;5118705;28;19939;-53
2023/10/16 17:27:49;;;;;;;;;;;;;;;;;;5100980;28;19912;-57
2023/10/16 17:30:14;;;;;;;;;;;;;;;;;;5114374;28;19912;-56
2023/10/16 17:32:40;;;;;;;;;;;;;;;;;;5109144;28;19912;-55
2023/10/16 17:35:06;;;;;;;;;;;;;;;;;;5108691;28;19919;-53
2023/10/16 17:37:31;;;;;;;;;;;;;;;;;;5117144;28;19938;-49
2023/10/16 17:39:57;;;;;;;;;;;;;;;;;;5114354;28;19913;-50
2023/10/16 17:42:23;;;;;;;;;;;;;;;;;;5116119;28;19955;-55
2023/10/16 17:44:49;;;;;;;;;;;;;;;;;;5124680;28;19918;-52
2023/10/16 17:47:15;;;;;;;;;;;;;;;;;;5116744;28;19912;-54
2023/10/16 17:49:41;;;;;;;;;;;;;;;;;;5121186;28;19911;-52
2023/10/16 17:52:09;;;;;;;;;;;;;;;;;;5119698;28;19909;-51
2023/10/16 17:54:35;;;;;;;;;;;;;;;;;;5116772;28;19923;-55
2023/10/16 17:57:00;;;;;;;;;;;;;;;;;;5109318;28;19971;-55
2023/10/16 17:59:26;;;;;;;;;;;;;;;;;;5110130;28;19942;-55
2023/10/16 18:01:51;;;;;;;;;;;;;;;;;;5116472;28;20021;-51
2023/10/16 18:04:18;;;;;;;;;;;;;;;;;;5116104;28;19987;-52
2023/10/16 18:06:43;;;;;;;;;;;;;;;;;;5116546;28;19930;-53
2023/10/16 18:09:08;;;;;;;;;;;;;;;;;;5117102;28;19975;-55
2023/10/16 18:11:34;;;;;;;;;;;;;;;;;;5118063;28;19916;-53
2023/10/16 18:14:00;;;;;;;;;;;;;;;;;;5117730;28;19908;-56
2023/10/16 18:16:25;;;;;;;;;;;;;;;;;;5121971;28;19943;-53
2023/10/16 18:18:51;;;;;;;;;;;;;;;;;;5117645;28;19919;-54
2023/10/16 18:21:16;;;;;;;;;;;;;;;;;;5124463;28;19928;-54
2023/10/16 18:23:42;;;;;;;;;;;;;;;;;;5117604;28;19923;-55
2023/10/16 18:26:08;;;;;;;;;;;;;;;;;;5105572;28;19912;-49
2023/10/16 18:28:35;;;;;;;;;;;;;;;;;;5116685;28;19908;-54
2023/10/16 18:31:03;;;;;;;;;;;;;;;;;;5117596;28;19908;-56
2023/10/16 18:33:29;;;;;;;;;;;;;;;;;;5116179;28;19912;-53
2023/10/16 18:35:54;;;;;;;;;;;;;;;;;;5122608;28;19915;-56
2023/10/16 18:38:21;;;;;;;;;;;;;;;;;;5123335;28;19955;-52
2023/10/16 18:40:46;;;;;;;;;;;;;;;;;;5117009;28;19937;-54
2023/10/16 18:43:12;;;;;;;;;;;;;;;;;;5116918;28;19940;-55